sensor_id;sensor_type;location;lat;lon;timestamp;P1;durP1;ratioP1;P2;durP2;ratioP2
21034;SDS011;10676;50.848;3.272;2023-12-22T00:01:39;16.75;;;10.93;;
21034;SDS011;10676;50.848;3.272;2023-12-22T00:04:05;17.92;;;10.43;;
21034;SDS011;10676;50.848;3.272;2023-12-22T00:06:32;20.25;;;11.23;;
21034;SDS011;10676;50.848;3.272;2023-12-22T00:08:58;17.80;;;10.93;;
21034;SDS011;10676;50.848;3.272;2023-12-22T00:11:23;16.58;;;11.65;;
21034;SDS011;10676;50.848;3.272;2023-12-22T00:13:49;14.93;;;11.18;;
21034;SDS011;10676;50.848;3.272;2023-12-22T00:16:14;26.23;;;13.38;;
21034;SDS011;10676;50.848;3.272;2023-12-22T00:18:40;37.63;;;33.10;;
21034;SDS011;10676;50.848;3.272;2023-12-22T00:21:12;70.10;;;63.97;;
21034;SDS011;10676;50.848;3.272;2023-12-22T00:23:38;77.45;;;70.45;;
21034;SDS011;10676;50.848;3.272;2023-12-22T00:26:04;77.72;;;71.72;;
21034;SDS011;10676;50.848;3.272;2023-12-22T00:28:30;92.57;;;85.35;;
21034;SDS011;10676;50.848;3.272;2023-12-22T00:30:59;102.95;;;94.75;;
21034;SDS011;10676;50.848;3.272;2023-12-22T00:33:25;110.00;;;101.50;;
21034;SDS011;10676;50.848;3.272;2023-12-22T00:35:51;130.77;;;120.07;;
21034;SDS011;10676;50.848;3.272;2023-12-22T00:40:45;141.80;;;130.63;;
21034;SDS011;10676;50.848;3.272;2023-12-22T00:43:11;125.32;;;115.43;;
21034;SDS011;10676;50.848;3.272;2023-12-22T00:45:36;105.07;;;96.85;;
21034;SDS011;10676;50.848;3.272;2023-12-22T00:48:02;89.05;;;81.47;;
21034;SDS011;10676;50.848;3.272;2023-12-22T00:50:28;67.05;;;60.72;;
21034;SDS011;10676;50.848;3.272;2023-12-22T00:52:54;53.15;;;47.55;;
21034;SDS011;10676;50.848;3.272;2023-12-22T00:55:19;47.85;;;42.20;;
21034;SDS011;10676;50.848;3.272;2023-12-22T00:57:45;39.20;;;32.17;;
21034;SDS011;10676;50.848;3.272;2023-12-22T01:00:11;34.53;;;30.77;;
21034;SDS011;10676;50.848;3.272;2023-12-22T01:02:38;32.47;;;28.95;;
21034;SDS011;10676;50.848;3.272;2023-12-22T01:05:04;30.23;;;26.73;;
21034;SDS011;10676;50.848;3.272;2023-12-22T01:07:30;39.85;;;27.17;;
21034;SDS011;10676;50.848;3.272;2023-12-22T01:09:56;32.22;;;23.80;;
21034;SDS011;10676;50.848;3.272;2023-12-22T01:12:26;41.00;;;24.30;;
21034;SDS011;10676;50.848;3.272;2023-12-22T01:14:58;33.20;;;22.35;;
21034;SDS011;10676;50.848;3.272;2023-12-22T01:17:24;28.00;;;20.23;;
21034;SDS011;10676;50.848;3.272;2023-12-22T01:19:49;30.02;;;17.05;;
21034;SDS011;10676;50.848;3.272;2023-12-22T01:22:16;24.73;;;16.00;;
21034;SDS011;10676;50.848;3.272;2023-12-22T01:24:42;16.73;;;15.52;;
21034;SDS011;10676;50.848;3.272;2023-12-22T01:27:11;26.00;;;21.02;;
21034;SDS011;10676;50.848;3.272;2023-12-22T01:29:37;47.47;;;42.85;;
21034;SDS011;10676;50.848;3.272;2023-12-22T01:32:03;61.33;;;56.17;;
21034;SDS011;10676;50.848;3.272;2023-12-22T01:34:30;66.65;;;61.10;;
21034;SDS011;10676;50.848;3.272;2023-12-22T01:36:55;72.63;;;66.45;;
21034;SDS011;10676;50.848;3.272;2023-12-22T01:39:21;77.70;;;70.55;;
21034;SDS011;10676;50.848;3.272;2023-12-22T01:41:47;87.40;;;80.13;;
21034;SDS011;10676;50.848;3.272;2023-12-22T01:44:12;101.63;;;93.18;;
21034;SDS011;10676;50.848;3.272;2023-12-22T01:46:38;120.28;;;110.63;;
21034;SDS011;10676;50.848;3.272;2023-12-22T01:49:04;118.55;;;108.25;;
21034;SDS011;10676;50.848;3.272;2023-12-22T01:51:32;124.63;;;114.20;;
21034;SDS011;10676;50.848;3.272;2023-12-22T01:54:02;127.50;;;116.85;;
21034;SDS011;10676;50.848;3.272;2023-12-22T01:56:29;139.68;;;128.20;;
21034;SDS011;10676;50.848;3.272;2023-12-22T01:58:57;149.85;;;137.95;;
21034;SDS011;10676;50.848;3.272;2023-12-22T02:01:25;144.75;;;132.88;;
21034;SDS011;10676;50.848;3.272;2023-12-22T02:03:52;134.43;;;123.70;;
21034;SDS011;10676;50.848;3.272;2023-12-22T02:06:19;109.82;;;100.22;;
21034;SDS011;10676;50.848;3.272;2023-12-22T02:08:48;109.30;;;99.65;;
21034;SDS011;10676;50.848;3.272;2023-12-22T02:11:15;103.72;;;94.68;;
21034;SDS011;10676;50.848;3.272;2023-12-22T02:13:42;100.72;;;91.40;;
21034;SDS011;10676;50.848;3.272;2023-12-22T02:16:19;105.03;;;95.90;;
21034;SDS011;10676;50.848;3.272;2023-12-22T02:18:58;97.18;;;87.82;;
21034;SDS011;10676;50.848;3.272;2023-12-22T02:21:29;88.82;;;80.82;;
21034;SDS011;10676;50.848;3.272;2023-12-22T02:23:55;90.65;;;82.15;;
21034;SDS011;10676;50.848;3.272;2023-12-22T02:26:25;78.93;;;71.97;;
21034;SDS011;10676;50.848;3.272;2023-12-22T02:28:58;68.55;;;61.35;;
21034;SDS011;10676;50.848;3.272;2023-12-22T02:31:46;63.75;;;57.13;;
21034;SDS011;10676;50.848;3.272;2023-12-22T02:34:18;60.78;;;54.97;;
21034;SDS011;10676;50.848;3.272;2023-12-22T02:36:45;58.88;;;52.47;;
21034;SDS011;10676;50.848;3.272;2023-12-22T02:39:12;50.67;;;45.58;;
21034;SDS011;10676;50.848;3.272;2023-12-22T02:41:39;50.30;;;44.08;;
21034;SDS011;10676;50.848;3.272;2023-12-22T02:44:06;47.90;;;35.85;;
21034;SDS011;10676;50.848;3.272;2023-12-22T02:46:35;40.55;;;30.55;;
21034;SDS011;10676;50.848;3.272;2023-12-22T02:49:00;37.28;;;28.02;;
21034;SDS011;10676;50.848;3.272;2023-12-22T02:51:26;33.22;;;27.95;;
21034;SDS011;10676;50.848;3.272;2023-12-22T02:53:52;30.50;;;25.58;;
21034;SDS011;10676;50.848;3.272;2023-12-22T02:56:17;38.03;;;24.42;;
21034;SDS011;10676;50.848;3.272;2023-12-22T02:58:43;32.47;;;23.90;;
21034;SDS011;10676;50.848;3.272;2023-12-22T03:01:09;33.88;;;24.38;;
21034;SDS011;10676;50.848;3.272;2023-12-22T03:03:34;37.22;;;22.67;;
21034;SDS011;10676;50.848;3.272;2023-12-22T03:06:00;33.67;;;21.63;;
21034;SDS011;10676;50.848;3.272;2023-12-22T03:08:25;32.15;;;20.83;;
21034;SDS011;10676;50.848;3.272;2023-12-22T03:10:51;30.48;;;19.02;;
21034;SDS011;10676;50.848;3.272;2023-12-22T03:13:17;33.47;;;17.85;;
21034;SDS011;10676;50.848;3.272;2023-12-22T03:15:42;25.52;;;17.58;;
21034;SDS011;10676;50.848;3.272;2023-12-22T03:18:08;27.85;;;16.80;;
21034;SDS011;10676;50.848;3.272;2023-12-22T03:20:33;23.25;;;17.42;;
21034;SDS011;10676;50.848;3.272;2023-12-22T03:22:59;34.28;;;16.35;;
21034;SDS011;10676;50.848;3.272;2023-12-22T03:25:25;35.85;;;15.57;;
21034;SDS011;10676;50.848;3.272;2023-12-22T03:27:50;25.13;;;15.70;;
21034;SDS011;10676;50.848;3.272;2023-12-22T03:30:16;25.70;;;14.95;;
21034;SDS011;10676;50.848;3.272;2023-12-22T03:32:42;29.95;;;15.00;;
21034;SDS011;10676;50.848;3.272;2023-12-22T03:35:08;27.17;;;15.00;;
21034;SDS011;10676;50.848;3.272;2023-12-22T03:37:33;30.75;;;14.95;;
21034;SDS011;10676;50.848;3.272;2023-12-22T03:39:59;28.90;;;14.75;;
21034;SDS011;10676;50.848;3.272;2023-12-22T03:42:25;34.30;;;14.90;;
21034;SDS011;10676;50.848;3.272;2023-12-22T03:44:50;31.52;;;15.07;;
21034;SDS011;10676;50.848;3.272;2023-12-22T03:47:16;30.05;;;15.02;;
21034;SDS011;10676;50.848;3.272;2023-12-22T03:49:42;29.55;;;15.25;;
21034;SDS011;10676;50.848;3.272;2023-12-22T03:52:08;29.35;;;14.27;;
21034;SDS011;10676;50.848;3.272;2023-12-22T03:54:33;23.92;;;13.98;;
21034;SDS011;10676;50.848;3.272;2023-12-22T03:56:59;33.67;;;14.55;;
21034;SDS011;10676;50.848;3.272;2023-12-22T03:59:25;30.45;;;14.82;;
21034;SDS011;10676;50.848;3.272;2023-12-22T04:01:51;26.98;;;14.60;;
21034;SDS011;10676;50.848;3.272;2023-12-22T04:04:18;23.25;;;14.40;;
21034;SDS011;10676;50.848;3.272;2023-12-22T04:06:43;26.50;;;13.40;;
21034;SDS011;10676;50.848;3.272;2023-12-22T04:09:09;33.08;;;13.93;;
21034;SDS011;10676;50.848;3.272;2023-12-22T04:11:35;27.35;;;14.07;;
21034;SDS011;10676;50.848;3.272;2023-12-22T04:14:02;22.45;;;13.30;;
21034;SDS011;10676;50.848;3.272;2023-12-22T04:16:27;27.40;;;13.07;;
21034;SDS011;10676;50.848;3.272;2023-12-22T04:18:53;24.23;;;13.27;;
21034;SDS011;10676;50.848;3.272;2023-12-22T04:21:19;20.67;;;13.45;;
21034;SDS011;10676;50.848;3.272;2023-12-22T04:23:44;18.30;;;12.40;;
21034;SDS011;10676;50.848;3.272;2023-12-22T04:26:10;25.23;;;13.32;;
21034;SDS011;10676;50.848;3.272;2023-12-22T04:28:36;28.27;;;12.40;;
21034;SDS011;10676;50.848;3.272;2023-12-22T04:31:02;24.10;;;11.13;;
21034;SDS011;10676;50.848;3.272;2023-12-22T04:33:29;25.75;;;11.80;;
21034;SDS011;10676;50.848;3.272;2023-12-22T04:35:54;25.92;;;11.85;;
21034;SDS011;10676;50.848;3.272;2023-12-22T04:38:20;24.80;;;11.43;;
21034;SDS011;10676;50.848;3.272;2023-12-22T04:40:46;25.45;;;12.30;;
21034;SDS011;10676;50.848;3.272;2023-12-22T04:43:11;25.02;;;11.15;;
21034;SDS011;10676;50.848;3.272;2023-12-22T04:45:37;24.33;;;11.68;;
21034;SDS011;10676;50.848;3.272;2023-12-22T04:48:03;22.40;;;10.93;;
21034;SDS011;10676;50.848;3.272;2023-12-22T04:50:31;24.27;;;10.98;;
21034;SDS011;10676;50.848;3.272;2023-12-22T04:52:57;27.85;;;11.20;;
21034;SDS011;10676;50.848;3.272;2023-12-22T04:55:22;26.40;;;11.23;;
21034;SDS011;10676;50.848;3.272;2023-12-22T04:57:48;20.73;;;11.38;;
21034;SDS011;10676;50.848;3.272;2023-12-22T05:00:14;18.67;;;10.27;;
21034;SDS011;10676;50.848;3.272;2023-12-22T05:02:40;18.08;;;11.63;;
21034;SDS011;10676;50.848;3.272;2023-12-22T05:05:06;20.48;;;11.73;;
21034;SDS011;10676;50.848;3.272;2023-12-22T05:07:33;23.20;;;10.85;;
21034;SDS011;10676;50.848;3.272;2023-12-22T05:09:59;16.27;;;11.20;;
21034;SDS011;10676;50.848;3.272;2023-12-22T05:12:26;16.13;;;11.00;;
21034;SDS011;10676;50.848;3.272;2023-12-22T05:14:51;13.48;;;11.02;;
21034;SDS011;10676;50.848;3.272;2023-12-22T05:17:17;18.10;;;11.90;;
21034;SDS011;10676;50.848;3.272;2023-12-22T05:19:42;17.92;;;11.40;;
21034;SDS011;10676;50.848;3.272;2023-12-22T05:22:08;18.27;;;11.85;;
21034;SDS011;10676;50.848;3.272;2023-12-22T05:24:34;14.85;;;11.50;;
21034;SDS011;10676;50.848;3.272;2023-12-22T05:26:59;16.27;;;11.43;;
21034;SDS011;10676;50.848;3.272;2023-12-22T05:29:25;17.63;;;11.23;;
21034;SDS011;10676;50.848;3.272;2023-12-22T05:31:51;12.00;;;10.85;;
21034;SDS011;10676;50.848;3.272;2023-12-22T05:34:16;17.70;;;11.65;;
21034;SDS011;10676;50.848;3.272;2023-12-22T05:36:42;15.85;;;13.75;;
21034;SDS011;10676;50.848;3.272;2023-12-22T05:39:08;17.20;;;15.63;;
21034;SDS011;10676;50.848;3.272;2023-12-22T05:41:34;16.88;;;14.43;;
21034;SDS011;10676;50.848;3.272;2023-12-22T05:44:02;17.13;;;14.35;;
21034;SDS011;10676;50.848;3.272;2023-12-22T05:46:35;17.02;;;15.20;;
21034;SDS011;10676;50.848;3.272;2023-12-22T05:49:04;18.48;;;16.38;;
21034;SDS011;10676;50.848;3.272;2023-12-22T05:51:35;18.73;;;16.10;;
21034;SDS011;10676;50.848;3.272;2023-12-22T05:54:05;16.98;;;15.18;;
21034;SDS011;10676;50.848;3.272;2023-12-22T05:56:32;20.10;;;15.27;;
21034;SDS011;10676;50.848;3.272;2023-12-22T05:58:58;15.30;;;14.02;;
21034;SDS011;10676;50.848;3.272;2023-12-22T06:01:24;14.13;;;12.77;;
21034;SDS011;10676;50.848;3.272;2023-12-22T06:03:50;14.40;;;13.02;;
21034;SDS011;10676;50.848;3.272;2023-12-22T06:06:16;15.07;;;13.82;;
21034;SDS011;10676;50.848;3.272;2023-12-22T06:08:42;17.60;;;13.25;;
21034;SDS011;10676;50.848;3.272;2023-12-22T06:11:07;16.15;;;13.55;;
21034;SDS011;10676;50.848;3.272;2023-12-22T06:13:33;14.30;;;13.00;;
21034;SDS011;10676;50.848;3.272;2023-12-22T06:15:58;15.35;;;14.00;;
21034;SDS011;10676;50.848;3.272;2023-12-22T06:18:24;16.33;;;14.63;;
21034;SDS011;10676;50.848;3.272;2023-12-22T06:20:50;18.33;;;16.75;;
21034;SDS011;10676;50.848;3.272;2023-12-22T06:23:16;19.65;;;18.05;;
21034;SDS011;10676;50.848;3.272;2023-12-22T06:25:42;20.17;;;18.73;;
21034;SDS011;10676;50.848;3.272;2023-12-22T06:28:07;20.00;;;18.50;;
21034;SDS011;10676;50.848;3.272;2023-12-22T06:30:33;21.90;;;20.27;;
21034;SDS011;10676;50.848;3.272;2023-12-22T06:32:58;25.98;;;23.95;;
21034;SDS011;10676;50.848;3.272;2023-12-22T06:35:24;29.27;;;27.38;;
21034;SDS011;10676;50.848;3.272;2023-12-22T06:37:50;40.75;;;37.95;;
21034;SDS011;10676;50.848;3.272;2023-12-22T06:40:17;44.72;;;41.72;;
21034;SDS011;10676;50.848;3.272;2023-12-22T06:42:45;50.50;;;46.85;;
21034;SDS011;10676;50.848;3.272;2023-12-22T06:45:11;52.97;;;49.25;;
21034;SDS011;10676;50.848;3.272;2023-12-22T06:47:37;95.93;;;89.60;;
21034;SDS011;10676;50.848;3.272;2023-12-22T06:50:02;118.68;;;110.35;;
21034;SDS011;10676;50.848;3.272;2023-12-22T06:52:28;148.95;;;137.90;;
21034;SDS011;10676;50.848;3.272;2023-12-22T06:54:55;152.02;;;139.88;;
21034;SDS011;10676;50.848;3.272;2023-12-22T06:57:21;166.85;;;153.18;;
21034;SDS011;10676;50.848;3.272;2023-12-22T06:59:47;165.35;;;151.68;;
21034;SDS011;10676;50.848;3.272;2023-12-22T07:02:15;164.48;;;150.65;;
21034;SDS011;10676;50.848;3.272;2023-12-22T07:04:41;163.30;;;149.48;;
21034;SDS011;10676;50.848;3.272;2023-12-22T07:07:08;169.23;;;155.02;;
21034;SDS011;10676;50.848;3.272;2023-12-22T07:09:33;169.50;;;155.32;;
21034;SDS011;10676;50.848;3.272;2023-12-22T07:11:59;164.15;;;150.50;;
21034;SDS011;10676;50.848;3.272;2023-12-22T07:14:25;172.73;;;158.27;;
21034;SDS011;10676;50.848;3.272;2023-12-22T07:16:50;166.15;;;152.15;;
21034;SDS011;10676;50.848;3.272;2023-12-22T07:19:16;169.88;;;155.73;;
21034;SDS011;10676;50.848;3.272;2023-12-22T07:21:42;159.38;;;145.80;;
21034;SDS011;10676;50.848;3.272;2023-12-22T07:24:07;157.40;;;144.20;;
21034;SDS011;10676;50.848;3.272;2023-12-22T07:26:33;148.55;;;135.50;;
21034;SDS011;10676;50.848;3.272;2023-12-22T07:28:59;149.68;;;136.85;;
21034;SDS011;10676;50.848;3.272;2023-12-22T07:31:25;147.90;;;135.50;;
21034;SDS011;10676;50.848;3.272;2023-12-22T07:33:51;133.80;;;122.32;;
21034;SDS011;10676;50.848;3.272;2023-12-22T07:36:17;129.00;;;117.90;;
21034;SDS011;10676;50.848;3.272;2023-12-22T07:38:46;135.63;;;123.55;;
21034;SDS011;10676;50.848;3.272;2023-12-22T07:41:12;133.25;;;121.70;;
21034;SDS011;10676;50.848;3.272;2023-12-22T07:43:37;133.57;;;122.13;;
21034;SDS011;10676;50.848;3.272;2023-12-22T07:46:03;131.75;;;119.97;;
21034;SDS011;10676;50.848;3.272;2023-12-22T07:48:29;119.28;;;108.78;;
21034;SDS011;10676;50.848;3.272;2023-12-22T07:50:54;120.55;;;110.53;;
21034;SDS011;10676;50.848;3.272;2023-12-22T07:53:20;87.40;;;80.20;;
21034;SDS011;10676;50.848;3.272;2023-12-22T07:55:46;76.97;;;70.38;;
21034;SDS011;10676;50.848;3.272;2023-12-22T07:58:12;66.07;;;59.88;;
21034;SDS011;10676;50.848;3.272;2023-12-22T08:00:38;51.92;;;47.22;;
21034;SDS011;10676;50.848;3.272;2023-12-22T08:03:04;48.05;;;43.95;;
21034;SDS011;10676;50.848;3.272;2023-12-22T08:05:29;49.38;;;45.45;;
21034;SDS011;10676;50.848;3.272;2023-12-22T08:07:55;44.95;;;41.58;;
21034;SDS011;10676;50.848;3.272;2023-12-22T08:10:21;39.72;;;36.53;;
21034;SDS011;10676;50.848;3.272;2023-12-22T08:12:47;38.33;;;35.00;;
21034;SDS011;10676;50.848;3.272;2023-12-22T08:15:15;32.00;;;29.48;;
21034;SDS011;10676;50.848;3.272;2023-12-22T08:17:50;29.05;;;26.65;;
21034;SDS011;10676;50.848;3.272;2023-12-22T08:20:20;26.65;;;24.30;;
21034;SDS011;10676;50.848;3.272;2023-12-22T08:22:46;28.40;;;26.13;;
21034;SDS011;10676;50.848;3.272;2023-12-22T08:25:13;30.63;;;27.38;;
21034;SDS011;10676;50.848;3.272;2023-12-22T08:27:39;26.75;;;24.33;;
21034;SDS011;10676;50.848;3.272;2023-12-22T08:30:06;26.08;;;23.73;;
21034;SDS011;10676;50.848;3.272;2023-12-22T08:32:32;24.77;;;22.92;;
21034;SDS011;10676;50.848;3.272;2023-12-22T08:34:57;25.38;;;23.20;;
21034;SDS011;10676;50.848;3.272;2023-12-22T08:37:23;24.83;;;22.70;;
21034;SDS011;10676;50.848;3.272;2023-12-22T08:39:49;24.58;;;22.50;;
21034;SDS011;10676;50.848;3.272;2023-12-22T08:42:15;23.30;;;21.50;;
21034;SDS011;10676;50.848;3.272;2023-12-22T08:44:41;21.70;;;20.10;;
21034;SDS011;10676;50.848;3.272;2023-12-22T08:47:07;22.88;;;21.08;;
21034;SDS011;10676;50.848;3.272;2023-12-22T08:49:33;21.85;;;20.30;;
21034;SDS011;10676;50.848;3.272;2023-12-22T08:51:58;22.17;;;20.33;;
21034;SDS011;10676;50.848;3.272;2023-12-22T08:54:24;21.70;;;20.08;;
21034;SDS011;10676;50.848;3.272;2023-12-22T08:56:51;21.05;;;19.55;;
21034;SDS011;10676;50.848;3.272;2023-12-22T08:59:17;21.17;;;19.40;;
21034;SDS011;10676;50.848;3.272;2023-12-22T09:01:43;20.48;;;18.80;;
21034;SDS011;10676;50.848;3.272;2023-12-22T09:04:12;19.85;;;18.38;;
21034;SDS011;10676;50.848;3.272;2023-12-22T09:06:37;19.40;;;18.10;;
21034;SDS011;10676;50.848;3.272;2023-12-22T09:09:04;19.70;;;18.27;;
21034;SDS011;10676;50.848;3.272;2023-12-22T09:11:30;19.98;;;18.38;;
21034;SDS011;10676;50.848;3.272;2023-12-22T09:13:56;19.17;;;17.75;;
21034;SDS011;10676;50.848;3.272;2023-12-22T09:16:21;18.38;;;17.00;;
21034;SDS011;10676;50.848;3.272;2023-12-22T09:18:48;18.98;;;17.58;;
21034;SDS011;10676;50.848;3.272;2023-12-22T09:21:15;17.90;;;16.60;;
21034;SDS011;10676;50.848;3.272;2023-12-22T09:23:43;18.95;;;17.33;;
21034;SDS011;10676;50.848;3.272;2023-12-22T09:26:11;17.45;;;16.23;;
21034;SDS011;10676;50.848;3.272;2023-12-22T09:28:37;18.50;;;17.02;;
21034;SDS011;10676;50.848;3.272;2023-12-22T09:31:03;16.83;;;15.65;;
21034;SDS011;10676;50.848;3.272;2023-12-22T09:33:30;17.13;;;16.02;;
21034;SDS011;10676;50.848;3.272;2023-12-22T09:35:56;17.30;;;15.95;;
21034;SDS011;10676;50.848;3.272;2023-12-22T09:38:22;17.70;;;16.50;;
21034;SDS011;10676;50.848;3.272;2023-12-22T09:43:35;18.27;;;17.00;;
21034;SDS011;10676;50.848;3.272;2023-12-22T09:46:04;17.83;;;16.52;;
21034;SDS011;10676;50.848;3.272;2023-12-22T09:48:32;18.05;;;16.95;;
21034;SDS011;10676;50.848;3.272;2023-12-22T09:51:00;18.58;;;17.17;;
21034;SDS011;10676;50.848;3.272;2023-12-22T09:53:27;18.15;;;16.92;;
21034;SDS011;10676;50.848;3.272;2023-12-22T09:55:56;18.45;;;16.90;;
21034;SDS011;10676;50.848;3.272;2023-12-22T09:58:23;18.08;;;16.58;;
21034;SDS011;10676;50.848;3.272;2023-12-22T10:00:49;17.48;;;16.00;;
21034;SDS011;10676;50.848;3.272;2023-12-22T10:03:16;17.20;;;16.00;;
21034;SDS011;10676;50.848;3.272;2023-12-22T10:05:43;17.25;;;16.08;;
21034;SDS011;10676;50.848;3.272;2023-12-22T10:08:09;17.50;;;16.20;;
21034;SDS011;10676;50.848;3.272;2023-12-22T10:10:38;17.45;;;16.35;;
21034;SDS011;10676;50.848;3.272;2023-12-22T10:13:05;17.35;;;15.93;;
21034;SDS011;10676;50.848;3.272;2023-12-22T10:15:34;17.90;;;16.40;;
21034;SDS011;10676;50.848;3.272;2023-12-22T10:18:06;19.25;;;17.70;;
21034;SDS011;10676;50.848;3.272;2023-12-22T10:20:32;18.95;;;17.75;;
21034;SDS011;10676;50.848;3.272;2023-12-22T10:22:59;18.15;;;16.73;;
21034;SDS011;10676;50.848;3.272;2023-12-22T10:25:28;17.80;;;16.58;;
21034;SDS011;10676;50.848;3.272;2023-12-22T10:27:54;17.65;;;16.55;;
21034;SDS011;10676;50.848;3.272;2023-12-22T10:30:20;18.40;;;17.10;;
21034;SDS011;10676;50.848;3.272;2023-12-22T10:32:47;18.27;;;17.02;;
21034;SDS011;10676;50.848;3.272;2023-12-22T10:35:16;17.60;;;16.33;;
21034;SDS011;10676;50.848;3.272;2023-12-22T10:37:42;18.05;;;16.83;;
21034;SDS011;10676;50.848;3.272;2023-12-22T10:40:08;17.30;;;16.20;;
21034;SDS011;10676;50.848;3.272;2023-12-22T10:42:34;17.80;;;16.45;;
21034;SDS011;10676;50.848;3.272;2023-12-22T10:45:01;16.90;;;15.80;;
21034;SDS011;10676;50.848;3.272;2023-12-22T10:47:27;16.63;;;15.45;;
21034;SDS011;10676;50.848;3.272;2023-12-22T10:49:53;16.63;;;15.32;;
21034;SDS011;10676;50.848;3.272;2023-12-22T10:52:19;16.40;;;15.40;;
21034;SDS011;10676;50.848;3.272;2023-12-22T10:54:45;16.80;;;15.80;;
21034;SDS011;10676;50.848;3.272;2023-12-22T10:57:13;15.88;;;14.77;;
21034;SDS011;10676;50.848;3.272;2023-12-22T10:59:45;15.48;;;14.57;;
21034;SDS011;10676;50.848;3.272;2023-12-22T11:02:15;15.68;;;14.45;;
21034;SDS011;10676;50.848;3.272;2023-12-22T11:07:27;15.32;;;14.13;;
21034;SDS011;10676;50.848;3.272;2023-12-22T11:09:55;14.40;;;13.50;;
21034;SDS011;10676;50.848;3.272;2023-12-22T11:12:23;14.90;;;13.82;;
21034;SDS011;10676;50.848;3.272;2023-12-22T11:14:50;15.00;;;13.93;;
21034;SDS011;10676;50.848;3.272;2023-12-22T11:17:21;15.27;;;14.18;;
21034;SDS011;10676;50.848;3.272;2023-12-22T11:19:52;15.63;;;14.40;;
21034;SDS011;10676;50.848;3.272;2023-12-22T11:22:19;14.57;;;13.68;;
21034;SDS011;10676;50.848;3.272;2023-12-22T11:24:47;14.57;;;13.68;;
21034;SDS011;10676;50.848;3.272;2023-12-22T11:27:17;14.13;;;13.23;;
21034;SDS011;10676;50.848;3.272;2023-12-22T11:29:48;14.43;;;13.48;;
21034;SDS011;10676;50.848;3.272;2023-12-22T11:32:15;13.77;;;12.98;;
21034;SDS011;10676;50.848;3.272;2023-12-22T11:34:45;14.43;;;13.30;;
21034;SDS011;10676;50.848;3.272;2023-12-22T11:37:12;13.95;;;13.25;;
21034;SDS011;10676;50.848;3.272;2023-12-22T11:39:42;13.85;;;12.98;;
21034;SDS011;10676;50.848;3.272;2023-12-22T11:42:10;13.80;;;12.82;;
21034;SDS011;10676;50.848;3.272;2023-12-22T11:44:39;14.57;;;13.60;;
21034;SDS011;10676;50.848;3.272;2023-12-22T11:47:06;14.13;;;13.15;;
21034;SDS011;10676;50.848;3.272;2023-12-22T11:49:36;13.82;;;12.77;;
21034;SDS011;10676;50.848;3.272;2023-12-22T11:52:12;13.55;;;12.75;;
21034;SDS011;10676;50.848;3.272;2023-12-22T11:54:46;13.50;;;12.48;;
21034;SDS011;10676;50.848;3.272;2023-12-22T12:00:00;13.40;;;12.50;;
21034;SDS011;10676;50.848;3.272;2023-12-22T12:02:32;13.30;;;12.27;;
21034;SDS011;10676;50.848;3.272;2023-12-22T12:04:59;12.70;;;11.90;;
21034;SDS011;10676;50.848;3.272;2023-12-22T12:10:07;12.15;;;11.55;;
21034;SDS011;10676;50.848;3.272;2023-12-22T12:12:33;12.73;;;11.90;;
21034;SDS011;10676;50.848;3.272;2023-12-22T12:15:06;13.25;;;12.25;;
21034;SDS011;10676;50.848;3.272;2023-12-22T12:17:33;12.68;;;11.93;;
21034;SDS011;10676;50.848;3.272;2023-12-22T12:20:04;12.95;;;11.98;;
21034;SDS011;10676;50.848;3.272;2023-12-22T12:22:31;12.73;;;11.98;;
21034;SDS011;10676;50.848;3.272;2023-12-22T12:24:57;12.57;;;11.80;;
21034;SDS011;10676;50.848;3.272;2023-12-22T12:27:23;12.15;;;11.25;;
21034;SDS011;10676;50.848;3.272;2023-12-22T12:29:49;11.90;;;11.30;;
21034;SDS011;10676;50.848;3.272;2023-12-22T12:32:16;12.10;;;11.30;;
21034;SDS011;10676;50.848;3.272;2023-12-22T12:34:45;12.02;;;11.43;;
21034;SDS011;10676;50.848;3.272;2023-12-22T12:37:12;11.80;;;11.05;;
21034;SDS011;10676;50.848;3.272;2023-12-22T12:39:37;13.25;;;12.05;;
21034;SDS011;10676;50.848;3.272;2023-12-22T12:42:06;13.80;;;12.80;;
21034;SDS011;10676;50.848;3.272;2023-12-22T12:44:34;12.52;;;11.85;;
21034;SDS011;10676;50.848;3.272;2023-12-22T12:47:10;13.23;;;12.32;;
21034;SDS011;10676;50.848;3.272;2023-12-22T12:49:40;13.10;;;12.30;;
21034;SDS011;10676;50.848;3.272;2023-12-22T12:52:05;13.20;;;12.27;;
21034;SDS011;10676;50.848;3.272;2023-12-22T12:54:38;12.90;;;11.95;;
21034;SDS011;10676;50.848;3.272;2023-12-22T12:57:04;13.45;;;12.48;;
21034;SDS011;10676;50.848;3.272;2023-12-22T12:59:30;13.10;;;12.23;;
21034;SDS011;10676;50.848;3.272;2023-12-22T13:01:56;13.43;;;12.30;;
21034;SDS011;10676;50.848;3.272;2023-12-22T13:04:23;13.65;;;12.55;;
21034;SDS011;10676;50.848;3.272;2023-12-22T13:06:51;13.60;;;12.70;;
21034;SDS011;10676;50.848;3.272;2023-12-22T13:09:17;13.45;;;12.55;;
21034;SDS011;10676;50.848;3.272;2023-12-22T13:11:45;13.55;;;12.65;;
21034;SDS011;10676;50.848;3.272;2023-12-22T13:14:11;13.70;;;12.65;;
21034;SDS011;10676;50.848;3.272;2023-12-22T13:16:50;13.32;;;12.30;;
21034;SDS011;10676;50.848;3.272;2023-12-22T13:19:20;13.98;;;12.70;;
21034;SDS011;10676;50.848;3.272;2023-12-22T13:21:45;13.05;;;12.15;;
21034;SDS011;10676;50.848;3.272;2023-12-22T13:24:13;12.80;;;12.02;;
21034;SDS011;10676;50.848;3.272;2023-12-22T13:26:41;12.95;;;12.00;;
21034;SDS011;10676;50.848;3.272;2023-12-22T13:29:07;13.00;;;12.10;;
21034;SDS011;10676;50.848;3.272;2023-12-22T13:31:33;13.85;;;12.70;;
21034;SDS011;10676;50.848;3.272;2023-12-22T13:34:03;12.95;;;11.98;;
21034;SDS011;10676;50.848;3.272;2023-12-22T13:36:34;12.73;;;11.77;;
21034;SDS011;10676;50.848;3.272;2023-12-22T13:39:01;13.25;;;12.20;;
21034;SDS011;10676;50.848;3.272;2023-12-22T13:41:31;12.75;;;11.93;;
21034;SDS011;10676;50.848;3.272;2023-12-22T13:44:03;13.35;;;12.27;;
21034;SDS011;10676;50.848;3.272;2023-12-22T13:46:30;13.20;;;12.05;;
21034;SDS011;10676;50.848;3.272;2023-12-22T13:48:57;12.77;;;11.95;;
21034;SDS011;10676;50.848;3.272;2023-12-22T13:51:23;12.65;;;11.85;;
21034;SDS011;10676;50.848;3.272;2023-12-22T13:53:49;12.60;;;11.70;;
21034;SDS011;10676;50.848;3.272;2023-12-22T13:56:16;12.30;;;11.55;;
21034;SDS011;10676;50.848;3.272;2023-12-22T13:58:45;12.75;;;11.75;;
21034;SDS011;10676;50.848;3.272;2023-12-22T14:01:18;13.13;;;11.88;;
21034;SDS011;10676;50.848;3.272;2023-12-22T14:03:43;12.32;;;11.50;;
21034;SDS011;10676;50.848;3.272;2023-12-22T14:06:12;13.00;;;12.10;;
21034;SDS011;10676;50.848;3.272;2023-12-22T14:08:40;13.00;;;11.90;;
21034;SDS011;10676;50.848;3.272;2023-12-22T14:11:09;12.13;;;11.38;;
21034;SDS011;10676;50.848;3.272;2023-12-22T14:13:34;12.98;;;12.07;;
21034;SDS011;10676;50.848;3.272;2023-12-22T14:16:05;12.65;;;11.80;;
21034;SDS011;10676;50.848;3.272;2023-12-22T14:18:31;13.48;;;12.38;;
21034;SDS011;10676;50.848;3.272;2023-12-22T14:20:57;13.00;;;11.85;;
21034;SDS011;10676;50.848;3.272;2023-12-22T14:23:23;12.13;;;11.40;;
21034;SDS011;10676;50.848;3.272;2023-12-22T14:25:49;12.90;;;11.18;;
21034;SDS011;10676;50.848;3.272;2023-12-22T14:28:15;12.80;;;11.85;;
21034;SDS011;10676;50.848;3.272;2023-12-22T14:30:40;13.18;;;11.95;;